• Join FlightAware (Why Join?)
  • Login
  • US Flag 
11:22PM EST


 

Airport Tracker/Info


-or-


 

Live Flight TrackerFlight Track Log ✈ SWA1725 ✈ 08-Mar-2014 ✈ KSTL - KRSW

Flight Track Log - Related Links

Times and Time Zones

All times are in EST time to prevent confusion due to time zone crossing. See the SWA1725 flight status page for this flight to view local times or setup timezone preferences in your user account.

Time Position Orientation Groundspeed Altitude Reporting Facility
EST Latitude Longitude Course Direction KTS MPH feet Rate Location/Type
02:55PM 38.7500 -90.3833 122° Southeast 145 167 1,800  Level Gateway (St. Louis) TRACON
02:56PM 38.7833 -90.4333 311° West 208 239 3,000 1,500 Climbing Gateway (St. Louis) TRACON
02:57PM 38.7736 -90.4817 256° West 239 275 4,000 2,460 Climbing Kansas City Center
02:58PM 38.7075 -90.4806 179° South 267 307 7,200 2,700 Climbing Kansas City Center
02:59PM 38.6558 -90.3794 123° Southeast 298 343 9,700 2,220 Climbing Kansas City Center
03:00PM 38.6081 -90.2772 121° Southeast 329 379 11,800 2,400 Climbing Kansas City Center
03:01PM 38.3012 -89.6690 122° Southeast  Level FlightAware Approximate
03:01PM 38.5528 -90.1636 122° Southeast 366 421 14,700  Level Kansas City Center
03:02PM 38.4850 -90.0261 122° Southeast 384 442 15,200 1,440 Climbing Kansas City Center
03:03PM 38.4247 -89.9033 122° Southeast 392 451 17,700 2,400 Climbing Kansas City Center
03:04PM 38.3661 -89.7775 121° Southeast 406 467 20,200 2,280 Climbing Kansas City Center
03:05PM 38.2992 -89.6589 126° Southeast 411 473 22,500 2,040 Climbing Kansas City Center
03:06PM 38.2208 -89.5478 132° Southeast 419 482 24,400 1,740 Climbing Kansas City Center
03:07PM 38.1400 -89.4331 132° Southeast 433 498 26,100 1,680 Climbing Kansas City Center
03:08PM 38.0453 -89.2983 132° Southeast 437 503 27,900 1,560 Climbing Kansas City Center
03:09PM 37.9611 -89.1783 132° Southeast 451 519 29,300 1,200 Climbing Kansas City Center
03:10PM 37.8750 -89.0556 132° Southeast 461 531 30,400 960 Climbing Kansas City Center
03:11PM 37.7925 -88.9372 131° Southeast 475 547 31,300 780 Climbing Kansas City Center
03:12PM 37.7000 -88.8081 132° Southeast 487 560 32,000 780 Climbing Kansas City Center
03:13PM 37.6000 -88.6681 132° Southeast 498 573 33,000 960 Climbing Kansas City Center
03:14PM 37.5111 -88.5444 132° Southeast 506 582 33,900 840 Climbing Memphis Center
03:15PM 37.4158 -88.4125 132° Southeast 507 583 34,700 1,140 Climbing Memphis Center
03:16PM 37.3206 -88.2800 132° Southeast 507 583 36,300 1,080 Climbing Memphis Center
03:17PM 37.2094 -88.1281 133° Southeast 496 571 37,000 300 Climbing Memphis Center
03:18PM 37.1217 -88.0053 132° Southeast 496 571 37,000  Level Memphis Center
03:19PM 37.0272 -87.8767 133° Southeast 496 571 37,000  Level Memphis Center
03:20PM 36.9333 -87.7494 133° Southeast 496 571 37,000  Level Memphis Center
03:21PM 36.8400 -87.6222 132° Southeast 496 571 37,000  Level Memphis Center
03:22PM 36.7283 -87.4719 133° Southeast 496 571 37,000  Level Memphis Center
03:23PM 36.6339 -87.3439 133° Southeast 496 571 37,000  Level Memphis Center
03:24PM 36.5378 -87.2156 133° Southeast 498 573 37,000  Level Memphis Center
03:25PM 36.4406 -87.0883 134° Southeast 501 577 37,000  Level Memphis Center
03:26PM 36.3339 -86.9489 133° Southeast 502 578 37,000  Level Memphis Center
03:27PM 36.2375 -86.8231 134° Southeast 502 578 37,000  Level Memphis Center
03:28PM 36.1386 -86.6969 134° Southeast 500 575 37,000  Level Memphis Center
03:29PM 36.0228 -86.6272 154° Southeast 462 532 37,000  Level Memphis Center
03:31PM 35.9044 -86.5692 158° South 457 526 37,000  Level Memphis Center
03:32PM 35.7858 -86.5117 159° South 456 525 37,000  Level Memphis Center
03:33PM 35.6656 -86.4531 158° South 456 525 37,000  Level Memphis Center
03:34PM 35.5469 -86.3936 158° South 456 525 37,000  Level Memphis Center
03:35PM 35.4083 -86.3253 158° South 456 525 37,000  Level Memphis Center
03:36PM 35.2883 -86.2667 158° South 456 525 37,000  Level Memphis Center
03:37PM 35.1692 -86.2078 158° South 457 526 37,000  Level Memphis Center
03:38PM 35.0603 -86.1561 159° South 458 527 37,000  Level Memphis Center
03:39PM 34.9181 -86.0864 158° South 458 527 37,000  Level Memphis Center
03:40PM 34.8025 -86.0308 158° South 458 527 37,000  Level Memphis Center
03:41PM 34.6836 -85.9736 158° South 458 527 37,000  Level Memphis Center
03:42PM 34.5647 -85.9200 160° South 458 527 37,000  Level Memphis Center
03:43PM 34.4467 -85.8667 160° South 457 526 37,000  Level Memphis Center
03:44PM 34.3056 -85.8017 159° South 459 528 37,000  Level Atlanta Center
03:45PM 34.1872 -85.7514 161° South 453 521 37,000  Level Atlanta Center
03:46PM 34.0669 -85.6964 159° South 458 527 37,000  Level Atlanta Center
03:47PM 33.9486 -85.6439 160° South 458 527 37,000  Level Atlanta Center
03:48PM 33.8283 -85.5917 160° South 458 527 37,000  Level Atlanta Center
03:49PM 33.7100 -85.5422 161° South 458 527 37,000  Level Atlanta Center
03:50PM 33.5808 -85.5125 169° South 442 509 37,000  Level Atlanta Center
03:51PM 33.4622 -85.4906 171° South 442 509 37,000  Level Atlanta Center
03:52PM 33.3475 -85.4886 179° South 420 483 37,000  Level Atlanta Center
03:53PM 33.2453 -85.4794 176° South 414 476 37,000  Level Atlanta Center
03:54PM 33.1181 -85.4650 175° South 422 486 37,000  Level Atlanta Center
03:55PM 33.0081 -85.4036 155° Southeast 449 517 37,000  Level Atlanta Center
03:56PM 32.8897 -85.3450 157° South 461 531 37,000  Level Atlanta Center
03:57PM 32.7736 -85.2889 158° South 467 537 37,000  Level Atlanta Center
03:58PM 32.6508 -85.2281 157° South 467 537 37,000  Level Atlanta Center
03:59PM 32.5325 -85.1697 157° South 467 537 37,000  Level Atlanta Center
04:00PM 32.4100 -85.1117 158° South 467 537 37,000  Level Atlanta Center
04:01PM 32.2933 -85.0561 158° South 467 537 37,000  Level Atlanta Center
04:02PM 32.1667 -84.9983 159° South 455 524 37,000  Level Atlanta Center
04:03PM 32.0481 -84.9431 158° South 455 524 37,000  Level Atlanta Center
04:04PM 31.9317 -84.8831 156° South 449 517 37,000  Level Atlanta Center
04:05PM 31.8131 -84.8283 159° South 449 517 37,000  Level Atlanta Center
04:07PM 31.5481 -84.7014 158° South 461 531 37,000  Level Jacksonville Center
04:08PM 31.4319 -84.6456 158° South 461 531 37,000  Level Jacksonville Center
04:09PM 31.3117 -84.5900 158° South 461 531 37,000  Level Jacksonville Center
04:10PM 31.1933 -84.5342 158° South 461 531 37,000  Level Jacksonville Center
04:11PM 31.0750 -84.4764 157° South 461 531 37,000  Level Jacksonville Center
04:12PM 30.9567 -84.4211 158° South 461 531 37,000  Level Jacksonville Center
04:13PM 30.8383 -84.3661 158° South 461 531 37,000  Level Jacksonville Center
04:14PM 30.7200 -84.3133 159° South 461 531 37,000  Level Jacksonville Center
04:15PM 30.6058 -84.2586 158° South 456 525 37,000  Level Jacksonville Center
04:16PM 30.4792 -84.1989 158° South 451 519 37,000  Level Jacksonville Center
04:17PM 30.3669 -84.1469 158° South 446 513 37,000  Level Jacksonville Center
04:18PM 30.2503 -84.0950 159° South 446 513 37,000  Level Jacksonville Center
04:19PM 30.1381 -84.0406 157° South 446 513 37,000  Level Jacksonville Center
04:20PM 30.0217 -83.9889 159° South 446 513 37,000  Level Jacksonville Center
04:21PM 29.9072 -83.9350 158° South 446 513 37,000  Level Jacksonville Center
04:22PM 29.7908 -83.8786 157° South 451 519 37,000 -360 Level Jacksonville Center
04:23PM 29.6808 -83.8081 151° Southeast 451 519 36,300 -900 Descending Jacksonville Center
04:24PM 29.5706 -83.7356 150° Southeast 451 519 35,300 -660 Descending Jacksonville Center
04:25PM 29.4583 -83.6631 151° Southeast 456 525 35,000 -180 Descending Jacksonville Center
04:26PM 29.3481 -83.5906 150° Southeast 456 525 35,000  Level Jacksonville Center
04:27PM 29.2358 -83.5208 152° Southeast 456 525 35,000  Level Jacksonville Center
04:28PM 29.1214 -83.4464 150° Southeast 456 525 35,000  Level Jacksonville Center
04:29PM 29.0108 -83.3792 152° Southeast 456 525 35,000  Level Jacksonville Center
04:30PM 28.8942 -83.3147 154° Southeast 456 525 35,000  Level Jacksonville Center
04:31PM 28.7714 -83.2717 163° South 456 525 35,000 -240 Level Jacksonville Center
04:32PM 28.6503 -83.2286 163° South 462 532 34,600 -660 Descending Jacksonville Center
04:33PM 28.5397 -83.1856 161° South 462 532 33,700 -1,020 Descending Jacksonville Center
04:34PM 28.4042 -83.1403 164° South 462 532 32,600 -1,320 Descending Jacksonville Center
04:36PM 28.2244 -83.0761 163° South 445 512 30,400 -2,100 Descending Miami Center
04:37PM 28.1033 -83.0294 161° South 455 524 27,300 -1,740 Descending Miami Center
04:38PM 27.9825 -82.9783 160° South 462 532 27,000 -180 Descending Miami Center
04:39PM 27.8639 -82.9250 158° South 462 532 27,000 -300 Level Miami Center
04:40PM 27.7267 -82.8614 158° South 468 539 26,400 -780 Descending Miami Center
04:41PM 27.6228 -82.8019 153° Southeast 470 541 25,500 -960 Descending Miami Center
04:42PM 27.5025 -82.7303 152° Southeast 482 555 24,500 -1,860 Descending Miami Center
04:43PM 27.3767 -82.6492 150° Southeast 482 555 21,800 -2,220 Descending Miami Center
04:44PM 27.2667 -82.5781 150° Southeast 468 539 20,100 -1,800 Descending Miami Center
04:45PM 27.1689 -82.5175 151° Southeast 453 521 18,300 -2,040 Descending Miami Center
04:46PM 27.0608 -82.4514 151° Southeast 448 516 16,100 -2,400 Descending Miami Center
04:47PM 26.9508 -82.3811 150° Southeast 424 488 13,500 -1,920 Descending Miami Center
04:48PM 26.8569 -82.3231 151° Southeast 402 463 12,300 -1,080 Descending Miami Center
04:49PM 26.7778 -82.2681 148° Southeast 358 412 11,400 -1,200 Descending Miami Center
04:50PM 26.7047 -82.2114 145° Southeast 329 379 9,900 -1,560 Descending Miami Center
04:51PM 26.6317 -82.1522 144° Southeast 318 366 8,300 -1,500 Descending Miami Center
04:52PM 26.5625 -82.1006 146° Southeast 318 366 7,000 -1,320 Descending Miami Center
04:53PM 26.5103 -82.0447 136° Southeast 302 348 5,700 -1,020 Descending Miami Center
04:54PM 26.4733 -81.9689 119° Southeast 284 327 5,000 -660 Descending Miami Center
04:55PM 26.4442 -81.9097 119° Southeast 238 274 4,400 -600 Descending Miami Center
04:57PM 26.5263 -81.7594 50° Northeast  Level FlightAware Approximate
05:04PM 26.5333 -81.7500 50° Northeast  Level FlightAware Approximate
05:05PM 26.5362 -81.7552 50° Northeast  Level Estimated
05:06PM 26.5333 -81.7500 50° Northeast  Level FlightAware Approximate
05:07PM 26.5362 -81.7552 50° Northeast  Level Estimated